createdAt,value
2022-10-12T00:01:15.658Z,2.85
2022-10-12T00:03:43.723Z,2.76
2022-10-12T00:06:20.051Z,2.65
2022-10-12T00:08:51.055Z,2.60
2022-10-12T00:11:24.382Z,2.62
2022-10-12T00:13:52.922Z,2.41
2022-10-12T00:16:23.236Z,2.70
2022-10-12T00:18:57.010Z,2.37
2022-10-12T00:21:26.915Z,2.33
2022-10-12T00:24:01.665Z,2.49
2022-10-12T00:26:30.440Z,2.65
2022-10-12T00:29:01.296Z,2.58
2022-10-12T00:31:30.188Z,2.57
2022-10-12T00:34:04.140Z,2.68
2022-10-12T00:36:35.957Z,2.54
2022-10-12T00:39:08.198Z,2.77
2022-10-12T00:41:42.878Z,2.69
2022-10-12T00:44:35.470Z,2.53
2022-10-12T00:47:23.811Z,2.62
2022-10-12T00:50:21.083Z,2.43
2022-10-12T00:53:14.539Z,2.31
2022-10-12T00:55:58.016Z,2.35
2022-10-12T00:58:26.702Z,2.15
2022-10-12T01:00:54.583Z,2.19
2022-10-12T01:03:23.495Z,2.03
2022-10-12T01:05:52.055Z,2.11
2022-10-12T01:08:29.226Z,2.21
2022-10-12T01:10:57.772Z,2.28
2022-10-12T01:14:03.128Z,2.29
2022-10-12T01:16:47.352Z,2.31
2022-10-12T01:19:45.938Z,2.29
2022-10-12T01:22:49.817Z,2.32
2022-10-12T01:26:30.708Z,2.30
2022-10-12T01:32:46.012Z,2.33
2022-10-12T01:36:06.006Z,2.27
2022-10-12T01:39:09.302Z,2.28
2022-10-12T01:41:43.038Z,2.17
2022-10-12T01:44:11.024Z,2.25
2022-10-12T01:46:43.693Z,2.17
2022-10-12T01:49:14.563Z,2.18
2022-10-12T01:52:27.641Z,2.07
2022-10-12T01:55:35.547Z,2.02
2022-10-12T01:58:24.930Z,2.06
2022-10-12T02:01:29.612Z,2.15
2022-10-12T02:04:33.319Z,2.01
2022-10-12T02:07:17.388Z,2.12
2022-10-12T02:09:45.337Z,2.20
2022-10-12T02:12:19.616Z,2.08
2022-10-12T02:14:55.367Z,2.15
2022-10-12T02:17:24.097Z,2.10
2022-10-12T02:19:58.107Z,2.06
2022-10-12T02:22:34.515Z,2.01
2022-10-12T02:25:08.070Z,1.49
2022-10-12T02:27:40.423Z,2.03
2022-10-12T02:30:09.979Z,1.67
2022-10-12T02:32:58.524Z,1.97
2022-10-12T02:35:45.635Z,1.91
2022-10-12T02:38:33.167Z,1.72
2022-10-12T02:41:08.039Z,1.75
2022-10-12T02:43:49.019Z,1.83
2022-10-12T02:46:20.369Z,1.58
2022-10-12T02:48:50.799Z,1.73
2022-10-12T02:51:19.819Z,1.41
2022-10-12T02:53:48.315Z,1.62
2022-10-12T02:56:16.943Z,1.48
2022-10-12T02:58:47.353Z,1.56
2022-10-12T03:01:17.254Z,1.57
2022-10-12T03:03:46.281Z,1.41
2022-10-12T03:06:14.679Z,1.49
2022-10-12T03:08:42.605Z,1.48
2022-10-12T03:11:14.689Z,1.16
2022-10-12T03:13:42.520Z,1.31
2022-10-12T03:16:12.021Z,1.32
2022-10-12T03:18:41.017Z,1.39
2022-10-12T03:21:09.651Z,1.28
2022-10-12T03:23:38.644Z,1.23
2022-10-12T03:26:07.398Z,1.22
2022-10-12T03:28:35.746Z,1.31
2022-10-12T03:31:03.998Z,1.17
2022-10-12T03:33:31.932Z,1.24
2022-10-12T03:36:00.024Z,1.42
2022-10-12T03:38:28.480Z,1.36
2022-10-12T03:40:57.554Z,1.16
2022-10-12T03:43:25.808Z,1.42
2022-10-12T03:45:54.361Z,1.14
2022-10-12T03:48:22.479Z,1.26
2022-10-12T03:50:52.392Z,1.16
2022-10-12T03:53:20.866Z,1.11
2022-10-12T03:55:48.966Z,1.10
2022-10-12T03:58:16.880Z,1.10
2022-10-12T04:00:45.180Z,1.07
2022-10-12T04:03:13.302Z,1.12
2022-10-12T04:05:41.143Z,1.12
2022-10-12T04:08:12.015Z,0.83
2022-10-12T04:10:40.619Z,1.05
2022-10-12T04:13:08.478Z,1.02
2022-10-12T04:15:36.424Z,1.09
2022-10-12T04:18:04.648Z,0.70
2022-10-12T04:20:32.533Z,1.11
2022-10-12T04:23:00.714Z,1.11
2022-10-12T04:25:30.243Z,1.11
2022-10-12T04:27:58.513Z,1.08
2022-10-12T04:30:26.424Z,0.95
2022-10-12T04:32:54.556Z,0.45
2022-10-12T04:35:23.790Z,0.72
2022-10-12T04:37:53.880Z,0.69
2022-10-12T04:40:23.313Z,0.95
2022-10-12T04:42:51.140Z,0.92
2022-10-12T04:45:19.164Z,0.88
2022-10-12T04:47:47.055Z,0.64
2022-10-12T04:50:16.143Z,0.78
2022-10-12T04:52:44.195Z,0.77
2022-10-12T04:55:12.588Z,0.68
2022-10-12T04:57:41.150Z,0.62
2022-10-12T05:00:10.411Z,0.54
2022-10-12T05:02:38.615Z,0.79
2022-10-12T05:05:06.991Z,0.58
2022-10-12T05:07:35.065Z,0.67
2022-10-12T05:10:03.712Z,0.91
2022-10-12T05:12:31.503Z,1.03
2022-10-12T05:14:59.445Z,1.06
2022-10-12T05:17:27.487Z,1.04
2022-10-12T05:19:55.421Z,1.06
2022-10-12T05:22:23.374Z,1.11
2022-10-12T05:24:53.945Z,1.23
2022-10-12T05:27:22.212Z,1.27
2022-10-12T05:29:50.297Z,1.56
2022-10-12T05:32:19.130Z,1.64
2022-10-12T05:34:47.206Z,1.59
2022-10-12T05:37:15.171Z,1.81
2022-10-12T05:39:43.497Z,1.99
2022-10-12T05:42:12.692Z,2.10
2022-10-12T05:44:40.681Z,2.04
2022-10-12T05:47:09.003Z,2.38
2022-10-12T05:49:38.287Z,2.52
2022-10-12T05:52:06.299Z,2.68
2022-10-12T05:54:34.507Z,2.75
2022-10-12T05:57:03.165Z,2.76
2022-10-12T05:59:31.194Z,2.62
2022-10-12T06:01:59.231Z,2.85
2022-10-12T06:04:27.495Z,3.07
2022-10-12T06:06:55.681Z,3.24
2022-10-12T06:09:24.916Z,3.68
2022-10-12T06:11:52.760Z,3.66
2022-10-12T06:14:20.633Z,3.33
2022-10-12T06:16:52.332Z,4.23
2022-10-12T06:19:22.535Z,4.49
2022-10-12T06:21:50.646Z,4.49
2022-10-12T06:24:18.485Z,4.51
2022-10-12T06:26:46.293Z,4.78
2022-10-12T06:29:15.010Z,4.96
2022-10-12T06:31:45.521Z,5.05
2022-10-12T06:34:16.128Z,5.27
2022-10-12T06:36:44.067Z,5.78
2022-10-12T06:39:12.243Z,5.96
2022-10-12T06:41:41.163Z,5.81
2022-10-12T06:44:10.410Z,6.28
2022-10-12T06:46:38.268Z,6.39
2022-10-12T06:49:06.509Z,6.59
2022-10-12T06:51:34.389Z,6.81
2022-10-12T06:54:02.537Z,7.23
2022-10-12T06:56:31.666Z,7.35
2022-10-12T09:40:07.615Z,14.67
2022-10-12T09:42:36.500Z,14.99
2022-10-12T09:45:19.955Z,15.33
2022-10-12T09:48:18.184Z,15.29
2022-10-12T09:51:02.143Z,15.34
2022-10-12T09:53:35.458Z,15.20
2022-10-12T09:56:30.564Z,15.57
2022-10-12T09:59:04.927Z,15.44
2022-10-12T10:01:36.545Z,15.25
2022-10-12T10:04:23.335Z,15.38
2022-10-12T10:06:51.387Z,15.36
2022-10-12T10:09:35.672Z,15.58
2022-10-12T10:12:24.318Z,16.07
2022-10-12T10:14:56.829Z,16.40
2022-10-12T10:17:29.207Z,16.24
2022-10-12T10:19:59.255Z,16.20
2022-10-12T10:22:29.484Z,16.73
2022-10-12T10:25:00.938Z,15.57
2022-10-12T10:27:30.976Z,15.87
2022-10-12T10:30:32.144Z,15.81
2022-10-12T10:33:36.355Z,16.37
2022-10-12T10:36:26.861Z,16.57
2022-10-12T10:39:05.432Z,16.98
2022-10-12T10:41:40.766Z,17.66
2022-10-12T10:44:36.334Z,17.22
2022-10-12T10:47:12.427Z,16.88
2022-10-12T10:49:49.426Z,16.62
2022-10-12T10:52:37.580Z,17.32
2022-10-12T10:55:22.227Z,17.58
2022-10-12T10:58:06.244Z,17.85
2022-10-12T11:00:42.986Z,18.02
2022-10-12T11:03:26.245Z,18.57
2022-10-12T11:06:38.590Z,18.26
2022-10-12T11:09:32.625Z,18.59
2022-10-12T11:12:15.069Z,19.48
2022-10-12T11:14:55.635Z,19.51
2022-10-12T11:17:33.336Z,19.38
2022-10-12T11:20:41.821Z,19.05
2022-10-12T11:23:52.031Z,19.28
2022-10-12T11:26:41.339Z,19.22
2022-10-12T11:29:15.151Z,20.30
2022-10-12T11:32:22.586Z,20.19
2022-10-12T11:35:01.884Z,19.09
2022-10-12T11:37:53.189Z,18.77
2022-10-12T11:43:55.794Z,18.75
2022-10-12T11:46:53.724Z,18.75
2022-10-12T11:50:03.446Z,18.41
2022-10-12T11:52:54.214Z,18.46
2022-10-12T11:55:56.454Z,18.14
2022-10-12T11:58:48.641Z,17.96
2022-10-12T12:02:01.804Z,17.92
2022-10-12T12:04:42.174Z,17.71
2022-10-12T12:07:41.794Z,18.16
2022-10-12T12:10:28.152Z,18.33
2022-10-12T12:13:15.078Z,18.16
2022-10-12T12:15:52.759Z,18.01
2022-10-12T12:18:24.847Z,17.93
2022-10-12T12:21:08.180Z,16.90
2022-10-12T12:23:53.827Z,16.23
2022-10-12T12:29:17.840Z,16.09
2022-10-12T12:31:59.298Z,16.10
2022-10-12T12:34:28.669Z,15.74
2022-10-12T12:36:58.587Z,15.59
2022-10-12T12:39:32.039Z,15.67
2022-10-12T12:42:07.346Z,15.62
2022-10-12T12:44:37.049Z,15.50
2022-10-12T12:47:26.124Z,15.33
2022-10-12T12:50:01.457Z,15.13
2022-10-12T12:52:38.810Z,15.06
2022-10-12T12:55:34.827Z,15.19
2022-10-12T12:58:05.422Z,15.68
2022-10-12T13:00:51.821Z,16.20
2022-10-12T13:03:56.078Z,16.11
2022-10-12T13:06:30.602Z,15.73
2022-10-12T13:09:53.311Z,15.74
2022-10-12T13:12:46.313Z,15.55
2022-10-12T13:15:41.971Z,15.48
2022-10-12T13:19:26.175Z,15.37
2022-10-12T13:21:56.707Z,15.23
2022-10-12T13:24:34.900Z,14.97
2022-10-12T13:27:23.250Z,14.84
2022-10-12T13:30:04.776Z,14.82
2022-10-12T13:32:44.956Z,14.68
2022-10-12T13:35:23.150Z,14.51
2022-10-12T13:38:16.673Z,14.33
2022-10-12T13:40:53.544Z,14.62
2022-10-12T13:43:45.053Z,14.45
2022-10-12T13:46:51.776Z,14.37
2022-10-12T13:49:34.409Z,14.85
2022-10-12T13:52:31.808Z,15.43
2022-10-12T13:55:01.656Z,15.66
2022-10-12T13:57:46.494Z,16.03
2022-10-12T14:00:14.626Z,16.27
2022-10-12T14:03:06.658Z,16.24
2022-10-12T14:05:46.184Z,16.53
2022-10-12T14:08:21.686Z,16.40
2022-10-12T14:10:49.751Z,15.85
2022-10-12T14:13:34.481Z,17.17
2022-10-12T14:16:06.332Z,17.12
2022-10-12T14:18:42.119Z,17.05
2022-10-12T14:21:25.638Z,17.17
2022-10-12T14:24:09.790Z,17.24
2022-10-12T14:26:45.015Z,17.31
2022-10-12T14:29:29.401Z,17.39
2022-10-12T14:32:01.608Z,17.03
2022-10-12T14:34:35.497Z,17.30
2022-10-12T14:37:28.078Z,17.25
2022-10-12T14:40:00.714Z,16.92
2022-10-12T14:42:36.500Z,17.25
2022-10-12T14:45:24.283Z,16.69
2022-10-12T14:47:53.076Z,17.17
2022-10-12T14:50:22.443Z,16.94
2022-10-12T14:52:55.208Z,16.93
2022-10-12T14:55:27.506Z,17.00
2022-10-12T14:57:55.844Z,16.78
2022-10-12T15:00:33.281Z,16.60
2022-10-12T15:03:02.367Z,16.26
2022-10-12T15:05:33.235Z,16.21
2022-10-12T15:08:07.730Z,16.03
2022-10-12T15:10:37.208Z,15.87
2022-10-12T15:13:05.408Z,15.38
2022-10-12T15:15:53.397Z,15.43
2022-10-12T15:18:21.587Z,15.22
2022-10-12T15:20:49.960Z,15.06
2022-10-12T15:23:18.539Z,14.82
2022-10-12T15:25:55.987Z,14.77
2022-10-12T15:28:24.468Z,14.55
2022-10-12T15:33:44.414Z,13.71
2022-10-12T15:36:13.976Z,13.77
2022-10-12T15:38:41.841Z,13.20
2022-10-12T15:41:18.950Z,13.03
2022-10-12T15:43:47.069Z,12.82
2022-10-12T15:46:15.414Z,12.70
2022-10-12T15:48:51.300Z,12.57
2022-10-12T15:51:25.227Z,12.39
2022-10-12T15:53:55.340Z,12.24
2022-10-12T15:56:23.413Z,12.06
2022-10-12T15:58:51.542Z,11.87
2022-10-12T16:01:20.834Z,11.73
2022-10-12T16:03:49.827Z,11.54
2022-10-12T16:06:17.853Z,11.40
2022-10-12T16:08:45.827Z,11.17
2022-10-12T16:11:16.619Z,11.03
2022-10-12T16:13:54.051Z,10.64
2022-10-12T16:16:24.677Z,10.78
2022-10-12T16:18:54.321Z,10.56
2022-10-12T16:21:22.372Z,10.42
2022-10-12T16:23:50.600Z,10.31
2022-10-12T16:26:18.687Z,10.22
2022-10-12T16:28:47.072Z,10.17
2022-10-12T16:31:18.067Z,10.04
2022-10-12T16:33:46.261Z,9.91
2022-10-12T16:36:16.833Z,9.56
2022-10-12T16:38:45.278Z,9.56
2022-10-12T16:41:16.908Z,9.30
2022-10-12T16:43:45.113Z,9.20
2022-10-12T16:46:13.734Z,9.35
2022-10-12T16:48:41.809Z,9.18
2022-10-12T16:51:12.404Z,7.97
2022-10-12T16:53:42.632Z,8.95
2022-10-12T16:56:11.238Z,8.94
2022-10-12T16:58:39.125Z,8.58
2022-10-12T17:01:15.257Z,8.76
2022-10-12T17:03:43.468Z,8.40
2022-10-12T17:06:11.676Z,8.56
2022-10-12T17:08:39.985Z,8.45
2022-10-12T17:11:17.023Z,8.15
2022-10-12T17:13:49.013Z,8.36
2022-10-12T17:16:37.152Z,8.04
2022-10-12T17:19:05.791Z,7.86
2022-10-12T17:21:36.556Z,8.16
2022-10-12T17:24:05.747Z,8.00
2022-10-12T17:26:38.600Z,7.87
2022-10-12T17:29:13.274Z,7.89
2022-10-12T17:31:42.792Z,7.94
2022-10-12T17:34:30.672Z,7.91
2022-10-12T17:37:02.025Z,7.90
2022-10-12T17:39:34.624Z,7.85
2022-10-12T17:42:02.789Z,7.69
2022-10-12T17:44:30.913Z,7.53
2022-10-12T17:46:59.461Z,7.37
2022-10-12T17:49:28.495Z,7.33
2022-10-12T17:51:57.093Z,7.32
2022-10-12T17:54:26.689Z,6.99
2022-10-12T17:56:56.194Z,7.20
2022-10-12T17:59:25.314Z,7.12
2022-10-12T18:01:54.345Z,7.07
2022-10-12T18:04:22.651Z,6.98
2022-10-12T18:06:50.747Z,7.04
2022-10-12T18:09:18.819Z,6.47
2022-10-12T18:11:47.175Z,6.84
2022-10-12T18:14:16.137Z,6.80
2022-10-12T18:16:44.497Z,6.78
2022-10-12T18:19:13.680Z,6.78
2022-10-12T18:21:41.752Z,6.69
2022-10-12T18:24:16.635Z,6.69
2022-10-12T18:26:47.555Z,6.28
2022-10-12T18:29:19.007Z,6.69
2022-10-12T18:31:47.304Z,6.67
2022-10-12T18:34:15.700Z,6.55
2022-10-12T18:36:44.172Z,6.42
2022-10-12T18:39:12.654Z,6.42
2022-10-12T18:41:40.740Z,6.25
2022-10-12T18:44:11.270Z,5.90
2022-10-12T18:46:39.685Z,5.81
2022-10-12T18:49:10.387Z,5.97
2022-10-12T18:51:43.404Z,5.88
2022-10-12T18:54:14.104Z,5.57
2022-10-12T18:56:43.342Z,5.68
2022-10-12T18:59:12.631Z,5.89
2022-10-12T19:01:40.803Z,5.80
2022-10-12T19:04:08.800Z,5.64
2022-10-12T19:06:42.391Z,5.72
2022-10-12T19:09:14.092Z,5.69
2022-10-12T19:11:42.062Z,5.47
2022-10-12T19:14:14.914Z,5.50
2022-10-12T19:16:45.384Z,5.26
2022-10-12T19:19:20.799Z,5.47
2022-10-12T19:21:51.247Z,5.46
2022-10-12T19:24:21.639Z,5.45
2022-10-12T19:26:49.763Z,5.43
2022-10-12T19:29:17.991Z,5.21
2022-10-12T19:31:50.039Z,5.38
2022-10-12T19:34:21.264Z,5.18
2022-10-12T19:36:50.776Z,5.25
2022-10-12T19:39:22.737Z,4.94
2022-10-12T19:41:52.168Z,5.20
2022-10-12T19:44:20.789Z,4.91
2022-10-12T19:46:49.500Z,5.12
2022-10-12T19:49:20.816Z,5.13
2022-10-12T19:51:48.863Z,5.11
2022-10-12T19:54:17.132Z,4.73
2022-10-12T19:56:46.107Z,5.01
2022-10-12T19:59:16.647Z,4.91
2022-10-12T20:01:50.224Z,4.82
2022-10-12T20:04:19.773Z,4.89
2022-10-12T20:06:48.542Z,4.53
2022-10-12T20:09:22.461Z,4.87
2022-10-12T20:11:50.350Z,4.84
2022-10-12T20:14:18.409Z,4.59
2022-10-12T20:16:50.557Z,4.62
2022-10-12T20:19:18.641Z,4.71
2022-10-12T20:21:47.013Z,4.69
2022-10-12T20:24:15.904Z,4.69
2022-10-12T20:26:44.047Z,4.63
2022-10-12T20:29:12.149Z,4.55
2022-10-12T20:31:43.583Z,4.49
2022-10-12T20:34:12.437Z,4.19
2022-10-12T20:36:40.397Z,4.14
2022-10-12T20:39:08.538Z,4.33
2022-10-12T20:41:36.471Z,4.25
2022-10-12T20:44:04.477Z,4.24
2022-10-12T20:46:33.632Z,4.20
2022-10-12T20:49:03.229Z,4.23
2022-10-12T20:51:44.706Z,4.12
2022-10-12T20:54:16.041Z,4.22
2022-10-12T20:56:44.742Z,4.22
2022-10-12T20:59:12.896Z,4.12
2022-10-12T21:01:46.999Z,4.13
2022-10-12T21:04:19.586Z,4.19
2022-10-12T21:06:48.529Z,4.14
2022-10-12T21:09:16.867Z,4.17
2022-10-12T21:11:44.820Z,4.12
2022-10-12T21:14:13.746Z,3.96
2022-10-12T21:16:42.319Z,3.64
2022-10-12T21:19:17.206Z,3.92
2022-10-12T21:21:48.993Z,3.82
2022-10-12T21:24:17.097Z,3.73
2022-10-12T21:26:45.731Z,3.97
2022-10-12T21:29:14.775Z,3.68
2022-10-12T21:31:42.768Z,3.91
2022-10-12T21:34:11.301Z,3.92
2022-10-12T21:36:39.564Z,3.90
2022-10-12T21:39:15.265Z,3.71
2022-10-12T21:41:43.883Z,3.37
2022-10-12T21:44:12.429Z,3.79
2022-10-12T21:46:41.033Z,3.71
2022-10-12T21:49:10.848Z,3.60
2022-10-12T21:51:38.855Z,3.46
2022-10-12T21:54:08.212Z,3.50
2022-10-12T21:56:37.674Z,3.52
2022-10-12T21:59:07.085Z,3.49
2022-10-12T22:01:41.725Z,3.48
2022-10-12T22:04:15.549Z,3.41
2022-10-12T22:06:43.890Z,2.84
2022-10-12T22:09:19.207Z,3.03
2022-10-12T22:11:47.749Z,3.18
2022-10-12T22:14:18.816Z,3.12
2022-10-12T22:16:47.239Z,3.12
2022-10-12T22:19:19.166Z,3.07
2022-10-12T22:21:51.315Z,2.93
2022-10-12T22:24:21.689Z,3.05
2022-10-12T22:26:53.037Z,2.85
2022-10-12T22:29:20.994Z,3.06
2022-10-12T22:31:49.386Z,2.87
2022-10-12T22:34:17.714Z,3.15
2022-10-12T22:36:45.795Z,3.05
2022-10-12T22:39:14.054Z,3.07
2022-10-12T22:41:45.520Z,2.95
2022-10-12T22:44:13.736Z,2.60
2022-10-12T22:46:41.913Z,2.71
2022-10-12T22:49:10.810Z,2.86
2022-10-12T22:51:39.546Z,2.68
2022-10-12T22:54:09.649Z,2.70
2022-10-12T22:56:42.625Z,2.94
2022-10-12T22:59:15.809Z,2.88
2022-10-12T23:01:44.604Z,2.85
2022-10-12T23:04:12.771Z,2.60
2022-10-12T23:06:41.002Z,2.78
2022-10-12T23:09:09.042Z,2.51
2022-10-12T23:11:37.101Z,2.70
2022-10-12T23:14:05.224Z,2.47
2022-10-12T23:16:33.939Z,2.62
2022-10-12T23:19:05.532Z,2.56
2022-10-12T23:21:35.043Z,2.54
2022-10-12T23:24:05.229Z,2.60
2022-10-12T23:26:33.943Z,2.60
2022-10-12T23:29:02.539Z,2.36
2022-10-12T23:31:31.113Z,2.32
2022-10-12T23:34:06.210Z,2.55
2022-10-12T23:36:34.643Z,2.58
2022-10-12T23:39:05.518Z,2.51
2022-10-12T23:41:34.210Z,2.26
2022-10-12T23:44:02.596Z,2.41
2022-10-12T23:46:30.733Z,2.17
2022-10-12T23:48:59.854Z,2.12
2022-10-12T23:51:27.931Z,2.10
2022-10-12T23:53:55.903Z,2.26
2022-10-12T23:56:23.960Z,2.11
2022-10-12T23:58:52.378Z,1.91
